Time;durP1;ratioP1;P1;durP2;ratioP2;P2;SDS_P1;SDS_P2;PMS_P1;PMS_P2;Temp;Humidity;BMP_temperature;BMP_pressure;BME280_temperature;BME280_humidity;BME280_pressure;Samples;Min_cycle;Max_cycle;Signal;HPM_P1;HPM_P2
2022/09/03 00:00:32;;;;;;;1.57;0.77;;;;;;;;;;5050961;28;20021;-65
2022/09/03 00:02:57;;;;;;;2.60;0.88;;;;;;;;;;5050901;28;20284;-65
2022/09/03 00:05:41;;;;;;;3.80;1.27;;;;;;;;;;5050548;28;20024;-65
2022/09/03 00:08:07;;;;;;;3.83;1.20;;;;;;;;;;5050574;28;20041;-66
2022/09/03 00:10:35;;;;;;;2.83;0.88;;;;;;;;;;5051020;28;20032;-65
2022/09/03 00:13:01;;;;;;;1.70;0.90;;;;;;;;;;5050677;28;20009;-64
2022/09/03 00:15:28;;;;;;;4.65;0.80;;;;;;;;;;5050400;28;20021;-65
2022/09/03 00:17:57;;;;;;;1.55;0.85;;;;;;;;;;5051110;28;20082;-65
2022/09/03 00:20:35;;;;;;;5.72;1.55;;;;;;;;;;5050619;28;20389;-66
2022/09/03 00:23:02;;;;;;;3.03;1.08;;;;;;;;;;5051080;28;20020;-66
2022/09/03 00:25:47;;;;;;;2.92;1.25;;;;;;;;;;5050481;28;20129;-65
2022/09/03 00:28:17;;;;;;;1.83;1.00;;;;;;;;;;5019106;28;20041;-65
2022/09/03 00:30:44;;;;;;;6.97;0.90;;;;;;;;;;5050622;28;20029;-65
2022/09/03 00:33:20;;;;;;;2.63;0.90;;;;;;;;;;5050111;28;20439;-65
2022/09/03 00:35:49;;;;;;;1.40;0.88;;;;;;;;;;5049767;28;20017;-66
2022/09/03 00:38:14;;;;;;;13.90;1.20;;;;;;;;;;5050342;28;20048;-65
2022/09/03 00:40:39;;;;;;;3.07;1.00;;;;;;;;;;5050513;28;20454;-65
2022/09/03 00:43:31;;;;;;;6.28;1.00;;;;;;;;;;5050236;28;20271;-65
2022/09/03 00:46:04;;;;;;;6.10;1.00;;;;;;;;;;5043176;28;20107;-65
2022/09/03 00:48:30;;;;;;;7.68;1.00;;;;;;;;;;5050316;28;20438;-65
2022/09/03 00:50:59;;;;;;;2.58;0.95;;;;;;;;;;5049954;28;20031;-65
2022/09/03 00:53:30;;;;;;;4.80;1.02;;;;;;;;;;5050317;28;20387;-66
2022/09/03 00:56:02;;;;;;;5.65;0.98;;;;;;;;;;5050112;28;20539;-65
2022/09/03 00:58:41;;;;;;;8.15;1.00;;;;;;;;;;5050052;28;20017;-64
2022/09/03 01:01:09;;;;;;;3.65;0.90;;;;;;;;;;5050166;28;20021;-64
2022/09/03 01:03:42;;;;;;;7.22;0.98;;;;;;;;;;5050166;28;20052;-65
2022/09/03 01:06:10;;;;;;;4.13;1.27;;;;;;;;;;5049890;28;20017;-64
2022/09/03 01:08:40;;;;;;;1.95;0.90;;;;;;;;;;5050416;28;20576;-64
2022/09/03 01:11:05;;;;;;;2.10;0.70;;;;;;;;;;5049882;28;20432;-64
2022/09/03 01:13:34;;;;;;;8.65;0.95;;;;;;;;;;5050255;28;20049;-65
2022/09/03 01:16:12;;;;;;;1.77;1.00;;;;;;;;;;5049607;28;20413;-65
2022/09/03 01:18:56;;;;;;;4.53;0.80;;;;;;;;;;5050339;28;20079;-64
2022/09/03 01:21:39;;;;;;;5.30;0.90;;;;;;;;;;5049931;28;20141;-65
2022/09/03 01:24:11;;;;;;;6.28;1.02;;;;;;;;;;5050080;28;20025;-65
2022/09/03 01:26:37;;;;;;;3.22;0.85;;;;;;;;;;5049865;28;20028;-64
2022/09/03 01:29:09;;;;;;;2.50;1.00;;;;;;;;;;5049866;28;20021;-65
2022/09/03 01:31:43;;;;;;;14.93;1.60;;;;;;;;;;5049363;28;20047;-65
2022/09/03 01:34:27;;;;;;;1.33;0.70;;;;;;;;;;5049186;28;20013;-65
2022/09/03 01:37:11;;;;;;;10.07;0.82;;;;;;;;;;5049463;28;20024;-65
2022/09/03 01:39:36;;;;;;;2.55;1.02;;;;;;;;;;5050001;28;20056;-66
2022/09/03 01:42:18;;;;;;;3.80;1.02;;;;;;;;;;5049834;28;20048;-64
2022/09/03 01:45:05;;;;;;;4.30;0.98;;;;;;;;;;5049995;28;20029;-65
2022/09/03 01:47:49;;;;;;;1.27;0.68;;;;;;;;;;5053403;28;20056;-65
2022/09/03 01:50:23;;;;;;;1.40;0.90;;;;;;;;;;5053335;28;20025;-65
2022/09/03 01:52:54;;;;;;;2.00;0.60;;;;;;;;;;5053521;28;20473;-65
2022/09/03 01:55:38;;;;;;;5.32;1.30;;;;;;;;;;5053113;28;20025;-65
2022/09/03 01:58:26;;;;;;;5.07;0.93;;;;;;;;;;5053672;28;20027;-64
2022/09/03 02:00:59;;;;;;;8.23;1.13;;;;;;;;;;5052884;28;20049;-64
2022/09/03 02:03:25;;;;;;;1.63;0.80;;;;;;;;;;5053103;28;20047;-65
2022/09/03 02:05:51;;;;;;;4.00;0.65;;;;;;;;;;5052778;28;20016;-64
2022/09/03 02:08:17;;;;;;;3.83;0.68;;;;;;;;;;5053395;28;20409;-65
2022/09/03 02:10:45;;;;;;;2.35;0.73;;;;;;;;;;5053254;28;20021;-65
2022/09/03 02:13:10;;;;;;;3.78;0.80;;;;;;;;;;5052856;28;20020;-66
2022/09/03 02:15:40;;;;;;;2.25;1.27;;;;;;;;;;5052514;28;20378;-65
2022/09/03 02:18:08;;;;;;;4.22;1.25;;;;;;;;;;5053220;28;20035;-66
2022/09/03 02:20:34;;;;;;;2.60;1.10;;;;;;;;;;5052809;28;20017;-65
2022/09/03 02:22:59;;;;;;;1.95;1.05;;;;;;;;;;5052307;28;20020;-65
2022/09/03 02:25:28;;;;;;;2.78;0.90;;;;;;;;;;5051792;28;20025;-65
2022/09/03 02:27:54;;;;;;;2.33;1.10;;;;;;;;;;5052671;28;20470;-65
2022/09/03 02:30:19;;;;;;;1.73;1.30;;;;;;;;;;5052183;28;20020;-64
2022/09/03 02:32:45;;;;;;;2.20;0.90;;;;;;;;;;5051360;28;20219;-64
2022/09/03 02:35:10;;;;;;;2.05;1.20;;;;;;;;;;5051994;28;20013;-64
2022/09/03 02:37:35;;;;;;;5.30;0.80;;;;;;;;;;5052385;28;20440;-64
2022/09/03 02:40:00;;;;;;;1.63;0.53;;;;;;;;;;5052624;28;20208;-65
2022/09/03 02:42:26;;;;;;;1.67;0.90;;;;;;;;;;5052572;28;20028;-65
2022/09/03 02:44:52;;;;;;;2.22;0.90;;;;;;;;;;5052208;28;20401;-64
2022/09/03 02:47:19;;;;;;;1.73;0.73;;;;;;;;;;5052000;28;20017;-65
2022/09/03 02:49:45;;;;;;;3.00;0.65;;;;;;;;;;5051991;28;20053;-65
2022/09/03 02:52:11;;;;;;;2.13;0.90;;;;;;;;;;5052037;28;20021;-65
2022/09/03 02:54:38;;;;;;;1.08;0.70;;;;;;;;;;5052267;28;20013;-65
2022/09/03 02:57:07;;;;;;;2.58;0.93;;;;;;;;;;5050865;28;20056;-65
2022/09/03 02:59:32;;;;;;;2.90;1.25;;;;;;;;;;5052439;28;20021;-65
2022/09/03 03:01:57;;;;;;;1.67;0.85;;;;;;;;;;5051918;28;20269;-65
2022/09/03 03:04:22;;;;;;;6.70;0.95;;;;;;;;;;5051856;28;20104;-65
2022/09/03 03:06:49;;;;;;;1.67;0.97;;;;;;;;;;5051937;28;20074;-65
2022/09/03 03:09:15;;;;;;;1.35;0.60;;;;;;;;;;5051512;28;20327;-64
2022/09/03 03:11:40;;;;;;;4.38;0.82;;;;;;;;;;5051988;28;20617;-65
2022/09/03 03:14:05;;;;;;;1.03;0.63;;;;;;;;;;5051661;28;20044;-65
2022/09/03 03:16:31;;;;;;;1.67;0.70;;;;;;;;;;5051202;28;20740;-65
2022/09/03 03:18:56;;;;;;;1.83;0.83;;;;;;;;;;5051886;28;20408;-65
2022/09/03 03:21:22;;;;;;;1.92;0.80;;;;;;;;;;5051404;28;20346;-64
2022/09/03 03:23:47;;;;;;;4.85;0.80;;;;;;;;;;5051648;28;20473;-64
2022/09/03 03:26:13;;;;;;;8.05;0.70;;;;;;;;;;5051217;28;20114;-65
2022/09/03 03:28:41;;;;;;;4.70;0.82;;;;;;;;;;5051500;28;20013;-65
2022/09/03 03:31:09;;;;;;;2.22;1.02;;;;;;;;;;5051675;28;20029;-64
2022/09/03 03:33:34;;;;;;;5.90;0.90;;;;;;;;;;5051557;28;20017;-64
2022/09/03 03:36:08;;;;;;;2.97;1.17;;;;;;;;;;5051128;28;20027;-65
2022/09/03 03:38:34;;;;;;;4.97;0.80;;;;;;;;;;5051168;28;20063;-66
2022/09/03 03:41:05;;;;;;;1.73;0.90;;;;;;;;;;5051216;28;20029;-65
2022/09/03 03:43:30;;;;;;;2.17;0.98;;;;;;;;;;5051227;28;20021;-64
2022/09/03 03:45:58;;;;;;;1.17;0.60;;;;;;;;;;5051093;28;20032;-65
2022/09/03 03:48:24;;;;;;;2.80;0.98;;;;;;;;;;5050962;28;20099;-64
2022/09/03 03:50:49;;;;;;;3.03;0.75;;;;;;;;;;5051115;28;20051;-64
2022/09/03 03:53:15;;;;;;;5.28;0.70;;;;;;;;;;5050852;28;20017;-65
2022/09/03 03:55:40;;;;;;;2.27;1.00;;;;;;;;;;5050798;28;20017;-65
2022/09/03 03:58:06;;;;;;;2.58;0.70;;;;;;;;;;5050753;28;20258;-65
2022/09/03 04:00:32;;;;;;;2.03;0.93;;;;;;;;;;5065457;28;20127;-64
2022/09/03 04:02:58;;;;;;;2.55;1.15;;;;;;;;;;5081109;28;20323;-64
2022/09/03 04:05:23;;;;;;;2.28;0.93;;;;;;;;;;5090928;28;20027;-65
2022/09/03 04:07:48;;;;;;;3.47;0.90;;;;;;;;;;5090866;28;20099;-65
2022/09/03 04:10:14;;;;;;;7.43;1.00;;;;;;;;;;5091077;28;20254;-65
2022/09/03 04:12:39;;;;;;;1.50;1.00;;;;;;;;;;5090549;28;20107;-64
2022/09/03 04:15:05;;;;;;;2.43;0.93;;;;;;;;;;5090802;28;20426;-64
2022/09/03 04:17:30;;;;;;;2.20;1.02;;;;;;;;;;5090512;28;20265;-64
2022/09/03 04:19:56;;;;;;;4.38;0.73;;;;;;;;;;5091140;28;20511;-64
2022/09/03 04:22:21;;;;;;;7.10;1.07;;;;;;;;;;5090830;28;20127;-65
2022/09/03 04:24:46;;;;;;;2.47;0.70;;;;;;;;;;5090278;28;20262;-64
2022/09/03 04:27:11;;;;;;;2.43;0.70;;;;;;;;;;5090399;28;20256;-65
2022/09/03 04:29:36;;;;;;;5.77;1.10;;;;;;;;;;5090620;28;20403;-64
2022/09/03 04:34:45;;;;;;;2.17;0.80;;;;;;;;;;5090724;28;20052;-65
2022/09/03 04:37:10;;;;;;;1.98;1.08;;;;;;;;;;5090194;28;20387;-64
2022/09/03 04:39:36;;;;;;;1.88;0.90;;;;;;;;;;5090678;28;20043;-64
2022/09/03 04:42:01;;;;;;;4.40;1.00;;;;;;;;;;5090432;28;20446;-65
2022/09/03 04:44:26;;;;;;;4.43;1.07;;;;;;;;;;5090257;28;20024;-64
2022/09/03 04:46:52;;;;;;;2.77;0.83;;;;;;;;;;5090066;28;20296;-65
2022/09/03 04:49:17;;;;;;;1.75;1.00;;;;;;;;;;5090738;28;20104;-64
2022/09/03 04:51:42;;;;;;;2.55;1.48;;;;;;;;;;5090246;28;20117;-64
2022/09/03 04:54:09;;;;;;;4.13;1.00;;;;;;;;;;5072615;28;20023;-65
2022/09/03 04:56:35;;;;;;;2.58;0.95;;;;;;;;;;5089748;28;20116;-64
2022/09/03 04:59:01;;;;;;;2.55;0.68;;;;;;;;;;5072072;28;20420;-64
2022/09/03 05:01:28;;;;;;;2.47;1.00;;;;;;;;;;5087641;28;20085;-66
2022/09/03 05:03:55;;;;;;;1.90;0.70;;;;;;;;;;5090276;28;20022;-65
2022/09/03 05:06:20;;;;;;;2.63;1.33;;;;;;;;;;5090439;28;20022;-65
2022/09/03 05:08:49;;;;;;;1.50;0.80;;;;;;;;;;5090299;28;20110;-65
2022/09/03 05:11:14;;;;;;;3.38;0.98;;;;;;;;;;5090279;28;20274;-65
2022/09/03 05:13:39;;;;;;;1.48;0.70;;;;;;;;;;5089835;28;20043;-65
2022/09/03 05:16:06;;;;;;;6.53;0.87;;;;;;;;;;5089852;28;20326;-65
2022/09/03 05:18:31;;;;;;;1.85;0.90;;;;;;;;;;5089914;28;20757;-64
2022/09/03 05:21:04;;;;;;;2.92;0.90;;;;;;;;;;5091377;28;20020;-65
2022/09/03 05:23:30;;;;;;;1.98;0.90;;;;;;;;;;5094209;28;20027;-65
2022/09/03 05:25:57;;;;;;;1.40;0.70;;;;;;;;;;5093597;28;20020;-64
2022/09/03 05:28:22;;;;;;;1.73;0.68;;;;;;;;;;5094072;28;20023;-65
2022/09/03 05:30:56;;;;;;;2.57;0.80;;;;;;;;;;5093828;28;20675;-65
2022/09/03 05:33:22;;;;;;;4.20;0.73;;;;;;;;;;5093826;28;20259;-65
2022/09/03 05:35:47;;;;;;;1.13;0.77;;;;;;;;;;5093722;28;20008;-64
2022/09/03 05:38:14;;;;;;;7.07;0.83;;;;;;;;;;5093983;28;20022;-65
2022/09/03 05:40:40;;;;;;;5.35;1.17;;;;;;;;;;5093506;28;20735;-65
2022/09/03 05:43:05;;;;;;;1.20;0.70;;;;;;;;;;5093949;28;20077;-66
2022/09/03 05:45:30;;;;;;;1.60;0.90;;;;;;;;;;5093395;28;20020;-65
2022/09/03 05:47:58;;;;;;;5.35;0.98;;;;;;;;;;5093846;28;20016;-65
2022/09/03 05:50:23;;;;;;;2.97;0.85;;;;;;;;;;5094007;28;20115;-65
2022/09/03 05:52:48;;;;;;;4.37;1.23;;;;;;;;;;5093340;28;20102;-65
2022/09/03 05:55:13;;;;;;;2.40;1.27;;;;;;;;;;5093355;28;20255;-65
2022/09/03 05:57:40;;;;;;;4.25;0.88;;;;;;;;;;5093102;28;20242;-65
2022/09/03 06:00:05;;;;;;;4.03;1.15;;;;;;;;;;5093400;28;20448;-64
2022/09/03 06:02:31;;;;;;;2.88;1.00;;;;;;;;;;5093244;28;20048;-65
2022/09/03 06:04:56;;;;;;;2.28;1.02;;;;;;;;;;5093077;28;20020;-65
2022/09/03 06:07:22;;;;;;;1.85;0.93;;;;;;;;;;5093065;28;20028;-65
2022/09/03 06:09:47;;;;;;;0.87;0.80;;;;;;;;;;5093150;28;20486;-65
2022/09/03 06:12:12;;;;;;;6.23;0.90;;;;;;;;;;5093103;28;20024;-65
2022/09/03 06:14:37;;;;;;;2.97;0.90;;;;;;;;;;5093037;28;20246;-65
2022/09/03 06:17:02;;;;;;;2.17;0.80;;;;;;;;;;5115896;22;20330;-68
2022/09/03 06:19:28;;;;;;;1.40;0.70;;;;;;;;;;5092860;28;20078;-67
2022/09/03 06:21:54;;;;;;;8.75;1.17;;;;;;;;;;5093009;28;20024;-68
2022/09/03 06:24:23;;;;;;;1.30;0.70;;;;;;;;;;5092785;28;20062;-69
2022/09/03 06:26:48;;;;;;;3.60;1.00;;;;;;;;;;5092420;28;20027;-68
2022/09/03 06:29:14;;;;;;;7.13;0.80;;;;;;;;;;5092970;28;20024;-68
2022/09/03 06:31:39;;;;;;;2.45;0.90;;;;;;;;;;5092080;28;20034;-69
2022/09/03 06:34:05;;;;;;;2.03;0.95;;;;;;;;;;5092365;28;20487;-68
2022/09/03 06:36:31;;;;;;;1.08;0.57;;;;;;;;;;5092360;28;20020;-68
2022/09/03 06:38:57;;;;;;;2.60;1.08;;;;;;;;;;5093054;28;20024;-68
2022/09/03 06:41:26;;;;;;;1.08;0.73;;;;;;;;;;5092622;28;20016;-68
2022/09/03 06:43:53;;;;;;;1.63;1.00;;;;;;;;;;5092471;28;20377;-67
2022/09/03 06:46:19;;;;;;;2.97;0.77;;;;;;;;;;5092318;28;20251;-68
2022/09/03 06:48:45;;;;;;;7.88;0.85;;;;;;;;;;5092097;28;20399;-68
2022/09/03 06:51:14;;;;;;;2.60;0.80;;;;;;;;;;5092454;28;20020;-69
2022/09/03 06:53:41;;;;;;;1.48;0.63;;;;;;;;;;5092372;28;20153;-68
2022/09/03 06:56:07;;;;;;;1.60;0.70;;;;;;;;;;5092091;28;20020;-68
2022/09/03 06:58:42;;;;;;;2.28;0.90;;;;;;;;;;5091972;28;20536;-70
2022/09/03 07:01:12;;;;;;;1.63;0.65;;;;;;;;;;5092294;28;20507;-68
2022/09/03 07:03:38;;;;;;;11.82;1.45;;;;;;;;;;5092092;28;20016;-68
2022/09/03 07:06:05;;;;;;;1.98;0.98;;;;;;;;;;5092067;28;20449;-68
2022/09/03 07:08:31;;;;;;;2.47;1.02;;;;;;;;;;5091622;28;20024;-69
2022/09/03 07:10:57;;;;;;;1.40;0.93;;;;;;;;;;5092068;28;20028;-68
2022/09/03 07:13:22;;;;;;;2.50;0.88;;;;;;;;;;5091763;28;20016;-68
2022/09/03 07:15:56;;;;;;;3.00;0.65;;;;;;;;;;5091851;28;20377;-68
2022/09/03 07:18:21;;;;;;;3.47;1.08;;;;;;;;;;5091860;28;20097;-68
2022/09/03 07:20:46;;;;;;;2.42;1.10;;;;;;;;;;5091552;28;20528;-68
2022/09/03 07:23:15;;;;;;;7.00;0.70;;;;;;;;;;5092277;28;20024;-68
2022/09/03 07:25:40;;;;;;;1.65;0.82;;;;;;;;;;5091385;28;20016;-68
2022/09/03 07:28:05;;;;;;;4.57;0.68;;;;;;;;;;5091799;28;20050;-67
2022/09/03 07:30:30;;;;;;;3.72;1.13;;;;;;;;;;5091679;28;20024;-68
2022/09/03 07:33:00;;;;;;;3.53;0.90;;;;;;;;;;5091752;28;20460;-68
2022/09/03 07:35:25;;;;;;;1.70;0.77;;;;;;;;;;5091328;28;20012;-68
2022/09/03 07:37:51;;;;;;;4.38;0.95;;;;;;;;;;5091158;28;20020;-68
2022/09/03 07:40:17;;;;;;;2.72;0.45;;;;;;;;;;5091344;28;20021;-69
2022/09/03 07:42:43;;;;;;;1.35;0.85;;;;;;;;;;5091042;28;20039;-69
2022/09/03 07:45:11;;;;;;;5.33;2.47;;;;;;;;;;5090773;28;20097;-69
2022/09/03 07:47:36;;;;;;;1.45;0.73;;;;;;;;;;5091229;28;20020;-69
2022/09/03 07:50:03;;;;;;;3.83;0.90;;;;;;;;;;5091669;28;20026;-69
2022/09/03 07:52:28;;;;;;;1.42;0.85;;;;;;;;;;5090919;28;20048;-69
2022/09/03 07:54:53;;;;;;;2.43;0.80;;;;;;;;;;5091070;28;20044;-68
2022/09/03 07:57:18;;;;;;;2.87;1.07;;;;;;;;;;5091266;28;20017;-69
2022/09/03 07:59:44;;;;;;;3.90;0.77;;;;;;;;;;5091054;28;20077;-68
2022/09/03 08:02:09;;;;;;;4.00;0.50;;;;;;;;;;5091112;28;20527;-68
2022/09/03 08:04:35;;;;;;;2.07;0.90;;;;;;;;;;5090734;28;20078;-68
2022/09/03 08:07:00;;;;;;;3.33;0.52;;;;;;;;;;5090754;28;20044;-68
2022/09/03 08:09:25;;;;;;;0.80;0.55;;;;;;;;;;5091396;28;20020;-68
2022/09/03 08:11:51;;;;;;;1.60;0.70;;;;;;;;;;5091428;28;20024;-69
2022/09/03 08:14:16;;;;;;;8.40;0.65;;;;;;;;;;5091372;28;20652;-68
2022/09/03 08:16:43;;;;;;;3.10;1.23;;;;;;;;;;5089924;28;20023;-68
2022/09/03 08:19:10;;;;;;;1.65;0.60;;;;;;;;;;5090956;28;20099;-68
2022/09/03 08:21:35;;;;;;;0.57;0.40;;;;;;;;;;5090538;28;20016;-68
2022/09/03 08:24:03;;;;;;;2.03;0.75;;;;;;;;;;5090977;28;20043;-69
2022/09/03 08:26:30;;;;;;;1.60;0.80;;;;;;;;;;5090430;28;20032;-69
2022/09/03 08:28:56;;;;;;;3.50;0.90;;;;;;;;;;5090623;28;20012;-69
2022/09/03 08:31:22;;;;;;;2.88;0.75;;;;;;;;;;5090589;28;20107;-69
2022/09/03 08:33:49;;;;;;;4.78;1.17;;;;;;;;;;5072360;28;20016;-68
2022/09/03 08:36:16;;;;;;;1.65;0.70;;;;;;;;;;5090126;28;20023;-68
2022/09/03 08:38:42;;;;;;;2.47;1.00;;;;;;;;;;5090306;28;20095;-68
2022/09/03 08:41:15;;;;;;;2.55;0.70;;;;;;;;;;5090295;28;20032;-69
2022/09/03 08:43:55;;;;;;;2.20;0.90;;;;;;;;;;5090624;28;20099;-68
2022/09/03 08:46:20;;;;;;;;;;;;;;;;;;5090946;28;20110;-68
2022/09/03 08:48:46;;;;;;;0.88;0.68;;;;;;;;;;5090340;28;20018;-68
2022/09/03 08:51:12;;;;;;;3.83;1.00;;;;;;;;;;5090376;28;20030;-67
2022/09/03 08:53:40;;;;;;;6.90;1.23;;;;;;;;;;5090095;28;20076;-67
2022/09/03 08:56:11;;;;;;;1.83;0.93;;;;;;;;;;5092131;28;20036;-67
2022/09/03 08:58:42;;;;;;;2.20;0.80;;;;;;;;;;5094501;28;20503;-67
2022/09/03 09:01:08;;;;;;;1.75;0.75;;;;;;;;;;5094741;28;20468;-67
2022/09/03 09:03:33;;;;;;;3.17;0.80;;;;;;;;;;5094596;28;20038;-68
2022/09/03 09:06:06;;;;;;;1.33;0.57;;;;;;;;;;5094133;28;20581;-68
2022/09/03 09:08:37;;;;;;;2.65;0.73;;;;;;;;;;5094223;28;20034;-69
2022/09/03 09:11:02;;;;;;;1.15;0.60;;;;;;;;;;5094277;28;20484;-67
2022/09/03 09:13:40;;;;;;;2.92;1.02;;;;;;;;;;5094240;28;20030;-68
2022/09/03 09:16:12;;;;;;;1.83;0.88;;;;;;;;;;5094147;28;20008;-68
2022/09/03 09:19:10;;;;;;;3.85;1.05;;;;;;;;;;5093813;28;20034;-67
2022/09/03 09:21:48;;;;;;;1.75;0.95;;;;;;;;;;5038049;28;20440;-68
2022/09/03 09:24:20;;;;;;;1.27;0.70;;;;;;;;;;5093430;28;20078;-68
2022/09/03 09:26:46;;;;;;;3.80;0.98;;;;;;;;;;5093525;28;20028;-68
2022/09/03 09:29:12;;;;;;;1.73;1.02;;;;;;;;;;5093936;28;20012;-68
2022/09/03 09:31:38;;;;;;;1.17;0.88;;;;;;;;;;5093547;28;20020;-68
2022/09/03 09:34:05;;;;;;;1.90;1.20;;;;;;;;;;5093661;28;20492;-68
2022/09/03 09:36:31;;;;;;;0.65;0.50;;;;;;;;;;5094900;28;20020;-67
2022/09/03 09:39:06;;;;;;;1.58;1.08;;;;;;;;;;5095418;28;20490;-68
2022/09/03 09:41:32;;;;;;;7.13;1.02;;;;;;;;;;5093992;28;20107;-67
2022/09/03 09:44:01;;;;;;;1.42;0.85;;;;;;;;;;5093923;28;20484;-68
2022/09/03 09:46:29;;;;;;;1.90;1.15;;;;;;;;;;5093611;28;20044;-68
2022/09/03 09:48:56;;;;;;;2.50;1.10;;;;;;;;;;5093993;28;20042;-68
2022/09/03 09:51:23;;;;;;;1.35;0.73;;;;;;;;;;5093551;28;20023;-67
2022/09/03 09:54:00;;;;;;;1.60;0.95;;;;;;;;;;5093702;28;20020;-67
2022/09/03 09:56:25;;;;;;;7.03;0.95;;;;;;;;;;5092809;28;20012;-68
2022/09/03 09:59:02;;;;;;;3.78;1.63;;;;;;;;;;5093363;28;20489;-68
2022/09/03 10:01:30;;;;;;;8.82;0.60;;;;;;;;;;5092005;28;20028;-68
2022/09/03 10:03:56;;;;;;;3.53;1.88;;;;;;;;;;5093049;28;20020;-69
2022/09/03 10:09:11;;;;;;;3.95;1.30;;;;;;;;;;5092981;28;20027;-68
2022/09/03 10:11:39;;;;;;;3.10;1.35;;;;;;;;;;5093189;28;20035;-69
2022/09/03 10:14:23;;;;;;;4.25;1.65;;;;;;;;;;5075225;28;20044;-69
2022/09/03 10:16:53;;;;;;;6.97;1.60;;;;;;;;;;5092820;28;20016;-69
2022/09/03 10:19:19;;;;;;;4.22;1.48;;;;;;;;;;5093062;28;20024;-69
2022/09/03 10:21:57;;;;;;;11.18;1.55;;;;;;;;;;5092755;28;20028;-69
2022/09/03 10:24:38;;;;;;;5.65;1.65;;;;;;;;;;5092925;28;20475;-69
2022/09/03 10:27:03;;;;;;;5.72;1.80;;;;;;;;;;5074295;28;20020;-69
2022/09/03 10:29:29;;;;;;;5.07;1.88;;;;;;;;;;5092840;28;20357;-69
2022/09/03 10:32:24;;;;;;;3.33;1.55;;;;;;;;;;5092721;28;20026;-69
2022/09/03 10:34:57;;;;;;;6.03;1.58;;;;;;;;;;5056689;28;20028;-69
2022/09/03 10:37:33;;;;;;;6.05;1.85;;;;;;;;;;5092530;28;20061;-70
2022/09/03 10:40:31;;;;;;;4.68;1.33;;;;;;;;;;5092464;28;20103;-69
2022/09/03 10:43:12;;;;;;;3.70;1.45;;;;;;;;;;5036774;28;20332;-69
2022/09/03 10:46:02;;;;;;;2.22;1.30;;;;;;;;;;5092517;28;20042;-69
2022/09/03 10:48:31;;;;;;;3.78;1.65;;;;;;;;;;5045812;28;20032;-69
2022/09/03 10:51:01;;;;;;;2.15;1.08;;;;;;;;;;5092172;28;20020;-68
2022/09/03 10:53:26;;;;;;;;;;;;;;;;;;5092582;28;20027;-68
2022/09/03 10:56:04;;;;;;;3.92;1.40;;;;;;;;;;5091928;28;19904;-68
2022/09/03 10:58:38;;;;;;;3.60;1.90;;;;;;;;;;5092163;28;20376;-68
2022/09/03 11:01:09;;;;;;;2.50;1.50;;;;;;;;;;5091896;28;20023;-68
2022/09/03 11:03:35;;;;;;;1.83;1.20;;;;;;;;;;5092298;28;20013;-69
2022/09/03 11:06:03;;;;;;;2.20;1.35;;;;;;;;;;5091624;28;20372;-68
2022/09/03 11:08:36;;;;;;;7.10;2.15;;;;;;;;;;5091965;28;20027;-68
2022/09/03 11:11:10;;;;;;;1.83;1.17;;;;;;;;;;5091592;28;20012;-68
2022/09/03 11:13:39;;;;;;;2.15;1.38;;;;;;;;;;5091987;28;20023;-68
2022/09/03 11:16:10;;;;;;;4.35;1.40;;;;;;;;;;5091758;28;20012;-68
2022/09/03 11:18:39;;;;;;;2.80;1.25;;;;;;;;;;5090994;28;20026;-68
2022/09/03 11:21:09;;;;;;;3.10;1.50;;;;;;;;;;5091830;28;20103;-69
2022/09/03 11:23:36;;;;;;;1.80;1.15;;;;;;;;;;5092153;28;20439;-69
2022/09/03 11:26:04;;;;;;;4.93;1.75;;;;;;;;;;5091500;28;20028;-69
2022/09/03 11:28:48;;;;;;;3.92;1.20;;;;;;;;;;5091788;28;20020;-68
2022/09/03 11:31:32;;;;;;;3.00;1.73;;;;;;;;;;5091132;28;20111;-68
2022/09/03 11:34:00;;;;;;;2.47;1.42;;;;;;;;;;5091498;28;20023;-68
2022/09/03 11:36:33;;;;;;;2.40;1.13;;;;;;;;;;5090960;28;20095;-69
2022/09/03 11:38:59;;;;;;;2.65;1.48;;;;;;;;;;5091340;28;20119;-69
2022/09/03 11:41:26;;;;;;;4.63;1.67;;;;;;;;;;5091424;28;20042;-68
2022/09/03 11:43:53;;;;;;;1.75;0.70;;;;;;;;;;5090986;28;20011;-68
2022/09/03 11:46:21;;;;;;;2.05;1.08;;;;;;;;;;5090889;28;20020;-68
2022/09/03 11:48:47;;;;;;;3.55;1.40;;;;;;;;;;5091275;28;20012;-69
2022/09/03 11:51:36;;;;;;;3.53;1.30;;;;;;;;;;5091051;28;20020;-69
2022/09/03 11:54:06;;;;;;;2.75;1.80;;;;;;;;;;5078177;28;20107;-69
2022/09/03 11:56:32;;;;;;;1.52;0.93;;;;;;;;;;5091118;28;20012;-69
2022/09/03 11:58:59;;;;;;;7.07;2.08;;;;;;;;;;5091134;28;20537;-69
2022/09/03 12:01:27;;;;;;;4.60;1.80;;;;;;;;;;5091070;28;20052;-68
2022/09/03 12:03:53;;;;;;;3.83;1.90;;;;;;;;;;5072795;28;20028;-69
2022/09/03 12:06:37;;;;;;;5.07;1.80;;;;;;;;;;5072695;28;20016;-69
2022/09/03 12:09:21;;;;;;;2.25;1.55;;;;;;;;;;5090614;28;20027;-69
2022/09/03 12:11:52;;;;;;;3.50;1.85;;;;;;;;;;5090964;28;20024;-69
2022/09/03 12:14:36;;;;;;;1.52;1.25;;;;;;;;;;5090536;28;20419;-67
2022/09/03 12:17:15;;;;;;;4.43;1.25;;;;;;;;;;5105060;22;20442;-64
2022/09/03 12:19:50;;;;;;;2.38;1.45;;;;;;;;;;5050596;28;20052;-64
2022/09/03 12:22:16;;;;;;;10.45;1.95;;;;;;;;;;5050755;28;20031;-64
2022/09/03 12:24:43;;;;;;;1.95;1.33;;;;;;;;;;5050746;28;20016;-64
2022/09/03 12:27:21;;;;;;;4.93;1.88;;;;;;;;;;5050024;28;20020;-65
2022/09/03 12:29:54;;;;;;;4.10;1.60;;;;;;;;;;5049883;28;20021;-65
2022/09/03 12:32:20;;;;;;;2.42;1.42;;;;;;;;;;5049566;28;20102;-65
2022/09/03 12:34:46;;;;;;;2.85;2.00;;;;;;;;;;5050320;28;20496;-65
2022/09/03 12:37:17;;;;;;;2.28;1.40;;;;;;;;;;5049966;28;20043;-65
2022/09/03 12:39:49;;;;;;;1.80;1.50;;;;;;;;;;5050179;28;20497;-65
2022/09/03 12:42:18;;;;;;;2.47;1.73;;;;;;;;;;5050168;28;20025;-65
2022/09/03 12:44:44;;;;;;;2.42;2.00;;;;;;;;;;5050486;28;20044;-66
2022/09/03 12:47:17;;;;;;;4.05;1.70;;;;;;;;;;5049743;28;20063;-66
2022/09/03 12:49:43;;;;;;;4.65;1.25;;;;;;;;;;5050046;28;20021;-65
2022/09/03 12:52:08;;;;;;;5.35;1.85;;;;;;;;;;5050258;28;20028;-66
2022/09/03 12:54:37;;;;;;;2.20;1.10;;;;;;;;;;5050621;28;20017;-65
2022/09/03 12:57:02;;;;;;;1.02;0.93;;;;;;;;;;5050154;28;20017;-65
2022/09/03 12:59:29;;;;;;;2.40;1.50;;;;;;;;;;5050136;28;20024;-64
2022/09/03 13:01:57;;;;;;;3.17;1.45;;;;;;;;;;5050148;28;20107;-65
2022/09/03 13:04:31;;;;;;;2.90;1.58;;;;;;;;;;5050169;28;20021;-65
2022/09/03 13:07:06;;;;;;;3.15;1.33;;;;;;;;;;5049595;28;20099;-65
2022/09/03 13:09:34;;;;;;;3.72;1.38;;;;;;;;;;5050224;28;20021;-64
2022/09/03 13:12:04;;;;;;;6.50;1.90;;;;;;;;;;5049854;28;20151;-64
2022/09/03 13:14:40;;;;;;;2.95;1.50;;;;;;;;;;5050259;28;20009;-65
2022/09/03 13:17:24;;;;;;;3.15;1.25;;;;;;;;;;5049605;28;20036;-64
2022/09/03 13:20:08;;;;;;;3.25;1.45;;;;;;;;;;5050099;28;20017;-64
2022/09/03 13:22:48;;;;;;;4.57;1.48;;;;;;;;;;5050144;28;20024;-65
2022/09/03 13:25:16;;;;;;;1.88;1.48;;;;;;;;;;5049812;28;20040;-64
2022/09/03 13:27:53;;;;;;;3.28;1.70;;;;;;;;;;5050072;28;20032;-65
2022/09/03 13:30:19;;;;;;;2.58;1.65;;;;;;;;;;5050048;28;20359;-64
2022/09/03 13:33:03;;;;;;;5.65;2.08;;;;;;;;;;5050138;28;20067;-64
2022/09/03 13:35:39;;;;;;;2.88;1.55;;;;;;;;;;5049556;28;20511;-63
2022/09/03 13:38:04;;;;;;;2.80;1.95;;;;;;;;;;5050223;28;20024;-65
2022/09/03 13:40:48;;;;;;;6.80;1.45;;;;;;;;;;5050380;28;20028;-64
2022/09/03 13:43:32;;;;;;;7.30;0.73;;;;;;;;;;5053060;28;20021;-65
2022/09/03 13:45:58;;;;;;;4.45;1.80;;;;;;;;;;5053569;28;20013;-64
2022/09/03 13:51:18;;;;;;;3.05;1.50;;;;;;;;;;5053417;28;20040;-65
2022/09/03 13:53:47;;;;;;;1.88;1.23;;;;;;;;;;5053500;28;20013;-64
2022/09/03 13:56:18;;;;;;;3.67;1.30;;;;;;;;;;5053238;28;20013;-65
2022/09/03 13:58:49;;;;;;;1.98;1.50;;;;;;;;;;5053384;28;20405;-65
2022/09/03 14:01:33;;;;;;;3.80;1.75;;;;;;;;;;5052998;28;20021;-65
2022/09/03 14:04:00;;;;;;;2.60;1.40;;;;;;;;;;5053121;28;20373;-64
2022/09/03 14:06:39;;;;;;;2.20;1.40;;;;;;;;;;5052968;28;20396;-64
2022/09/03 14:09:14;;;;;;;4.75;1.95;;;;;;;;;;5053128;28;20415;-64
2022/09/03 14:11:51;;;;;;;3.60;1.70;;;;;;;;;;5053085;28;20385;-65
2022/09/03 14:14:16;;;;;;;2.10;1.50;;;;;;;;;;5052980;28;20021;-64
2022/09/03 14:16:58;;;;;;;2.50;1.47;;;;;;;;;;5052712;28;20023;-65
2022/09/03 14:19:44;;;;;;;2.05;1.52;;;;;;;;;;5053202;28;20021;-64
2022/09/03 14:22:13;;;;;;;2.35;1.60;;;;;;;;;;5053351;28;20020;-64
2022/09/03 14:24:44;;;;;;;4.00;1.92;;;;;;;;;;5053670;28;20023;-66
2022/09/03 14:27:10;;;;;;;3.13;1.45;;;;;;;;;;5053475;28;20028;-65
2022/09/03 14:29:35;;;;;;;3.05;1.77;;;;;;;;;;5054297;28;20025;-66
2022/09/03 14:32:06;;;;;;;4.80;2.03;;;;;;;;;;5052836;28;20013;-65
2022/09/03 14:34:37;;;;;;;2.47;1.52;;;;;;;;;;5052976;28;20027;-66
2022/09/03 14:37:06;;;;;;;2.13;1.60;;;;;;;;;;5052275;28;20017;-65
2022/09/03 14:39:33;;;;;;;8.57;2.50;;;;;;;;;;5052564;28;20013;-65
2022/09/03 14:42:33;;;;;;;6.68;1.90;;;;;;;;;;5052528;28;20035;-65
2022/09/03 14:45:08;;;;;;;2.75;1.52;;;;;;;;;;4951855;28;20481;-64
2022/09/03 14:47:45;;;;;;;4.65;1.77;;;;;;;;;;5019541;28;20029;-65
2022/09/03 14:50:10;;;;;;;3.75;1.85;;;;;;;;;;5052166;28;20075;-65
2022/09/03 14:52:54;;;;;;;6.85;2.42;;;;;;;;;;5051805;28;20025;-65
2022/09/03 14:55:36;;;;;;;3.60;1.83;;;;;;;;;;5051740;28;20070;-64
2022/09/03 14:58:17;;;;;;;2.30;1.45;;;;;;;;;;5051811;28;20032;-65
2022/09/03 15:00:49;;;;;;;3.20;1.80;;;;;;;;;;5051961;28;20044;-65
2022/09/03 15:03:20;;;;;;;5.50;2.25;;;;;;;;;;5051834;28;20025;-65
2022/09/03 15:05:52;;;;;;;2.58;1.55;;;;;;;;;;5051704;28;20039;-64